createdAt,value
2022-11-19T00:02:25.790Z,-1.80
2022-11-19T00:04:53.941Z,-1.90
2022-11-19T00:09:52.040Z,-1.90
2022-11-19T00:12:37.590Z,-1.70
2022-11-19T00:15:07.159Z,-1.80
2022-11-19T00:17:35.285Z,-1.90
2022-11-19T00:20:03.431Z,-2.00
2022-11-19T00:22:31.527Z,-2.00
2022-11-19T00:25:01.037Z,-2.00
2022-11-19T00:27:29.137Z,-2.10
2022-11-19T00:29:57.301Z,-2.10
2022-11-19T00:32:25.461Z,-2.20
2022-11-19T00:34:53.570Z,-2.20
2022-11-19T00:37:21.814Z,-2.20
2022-11-19T00:39:49.978Z,-2.20
2022-11-19T00:42:19.488Z,-2.20
2022-11-19T00:44:47.641Z,-2.20
2022-11-19T00:47:16.138Z,-2.10
2022-11-19T00:49:44.246Z,-2.10
2022-11-19T00:52:12.516Z,-2.20
2022-11-19T00:54:40.677Z,-2.30
2022-11-19T00:57:08.779Z,-2.30
2022-11-19T00:59:38.230Z,-2.30
2022-11-19T01:02:06.348Z,-2.30
2022-11-19T01:04:34.509Z,-2.40
2022-11-19T01:07:02.665Z,-2.50
2022-11-19T01:09:30.819Z,-2.50
2022-11-19T01:11:59.026Z,-2.50
2022-11-19T01:14:27.195Z,-2.50
2022-11-19T01:16:56.668Z,-2.60
2022-11-19T01:19:24.773Z,-2.60
2022-11-19T01:21:52.851Z,-2.50
2022-11-19T01:24:20.959Z,-2.50
2022-11-19T01:26:49.087Z,-2.40
2022-11-19T01:29:17.430Z,-2.40
2022-11-19T01:31:45.744Z,-2.40
2022-11-19T01:34:15.199Z,-2.50
2022-11-19T01:36:43.370Z,-2.60
2022-11-19T01:39:11.452Z,-2.70
2022-11-19T01:41:39.556Z,-2.60
2022-11-19T01:44:29.217Z,-2.60
2022-11-19T01:46:57.375Z,-2.60
2022-11-19T01:49:26.960Z,-2.70
2022-11-19T01:51:59.537Z,-2.70
2022-11-19T01:54:36.131Z,-2.70
2022-11-19T01:57:11.082Z,-2.60
2022-11-19T01:59:40.501Z,-2.70
2022-11-19T02:02:08.948Z,-2.70
2022-11-19T02:04:38.949Z,-2.70
2022-11-19T02:07:08.791Z,-2.70
2022-11-19T02:09:37.148Z,-2.70
2022-11-19T02:12:26.437Z,-2.70
2022-11-19T02:15:24.015Z,-2.70
2022-11-19T02:18:45.662Z,-2.80
2022-11-19T02:21:32.640Z,-2.80
2022-11-19T02:24:48.546Z,-2.80
2022-11-19T02:28:00.593Z,-2.70
2022-11-19T02:30:36.750Z,-2.80
2022-11-19T02:33:11.278Z,-2.90
2022-11-19T02:35:51.119Z,-2.90
2022-11-19T02:38:38.727Z,-2.90
2022-11-19T02:41:35.123Z,-3.00
2022-11-19T02:44:34.987Z,-3.00
2022-11-19T02:47:08.019Z,-3.00
2022-11-19T02:49:42.806Z,-3.00
2022-11-19T02:52:11.675Z,-3.10
2022-11-19T02:54:39.787Z,-3.10
2022-11-19T02:57:10.151Z,-3.10
2022-11-19T03:00:04.693Z,-3.10
2022-11-19T03:02:58.577Z,-3.20
2022-11-19T03:05:34.576Z,-3.10
2022-11-19T03:08:02.880Z,-3.20
2022-11-19T03:10:40.675Z,-3.20
2022-11-19T03:13:37.281Z,-3.20
2022-11-19T03:16:32.425Z,-3.20
2022-11-19T03:19:11.312Z,-3.20
2022-11-19T03:21:44.773Z,-3.20
2022-11-19T03:24:19.316Z,-3.20
2022-11-19T03:26:55.244Z,-3.30
2022-11-19T03:29:27.917Z,-3.20
2022-11-19T03:32:04.140Z,-3.10
2022-11-19T03:34:37.152Z,-3.00
2022-11-19T03:37:09.994Z,-3.00
2022-11-19T03:39:40.082Z,-3.00
2022-11-19T03:42:14.173Z,-3.10
2022-11-19T03:44:51.045Z,-3.10
2022-11-19T03:47:27.358Z,-3.20
2022-11-19T03:50:04.139Z,-3.30
2022-11-19T03:52:33.373Z,-3.30
2022-11-19T03:55:01.508Z,-3.40
2022-11-19T03:57:29.740Z,-3.40
2022-11-19T03:59:57.855Z,-3.30
2022-11-19T04:02:25.987Z,-3.30
2022-11-19T04:04:54.134Z,-3.40
2022-11-19T04:07:26.068Z,-3.40
2022-11-19T04:09:54.222Z,-3.40
2022-11-19T04:12:25.597Z,-3.40
2022-11-19T04:14:53.957Z,-3.50
2022-11-19T04:17:22.089Z,-3.50
2022-11-19T04:19:50.201Z,-3.50
2022-11-19T04:22:18.326Z,-3.50
2022-11-19T04:24:47.894Z,-3.50
2022-11-19T04:27:16.068Z,-3.50
2022-11-19T04:29:44.168Z,-3.50
2022-11-19T04:32:12.416Z,-3.50
2022-11-19T04:34:40.553Z,-3.50
2022-11-19T04:37:08.741Z,-3.50
2022-11-19T04:39:36.864Z,-3.50
2022-11-19T04:42:06.538Z,-3.50
2022-11-19T04:44:34.625Z,-3.60
2022-11-19T04:47:02.732Z,-3.60
2022-11-19T04:49:30.827Z,-3.60
2022-11-19T04:51:59.030Z,-3.60
2022-11-19T04:54:27.183Z,-3.70
2022-11-19T04:56:55.269Z,-3.60
2022-11-19T04:59:24.873Z,-3.70
2022-11-19T05:01:53.385Z,-3.70
2022-11-19T05:04:21.594Z,-3.80
2022-11-19T05:06:49.669Z,-3.80
2022-11-19T05:09:18.073Z,-3.70
2022-11-19T05:11:46.375Z,-3.80
2022-11-19T05:14:14.545Z,-3.80
2022-11-19T05:16:44.027Z,-3.80
2022-11-19T05:19:12.155Z,-3.80
2022-11-19T05:21:40.274Z,-3.80
2022-11-19T05:24:09.359Z,-3.80
2022-11-19T05:26:37.469Z,-3.80
2022-11-19T05:29:05.628Z,-3.80
2022-11-19T05:31:33.763Z,-3.80
2022-11-19T05:34:03.227Z,-3.80
2022-11-19T05:36:31.318Z,-3.80
2022-11-19T05:38:59.569Z,-3.80
2022-11-19T05:41:27.697Z,-3.80
2022-11-19T05:43:55.844Z,-3.80
2022-11-19T05:46:24.034Z,-3.80
2022-11-19T05:48:52.155Z,-3.80
2022-11-19T05:51:21.642Z,-3.70
2022-11-19T05:53:49.887Z,-3.80
2022-11-19T05:56:18.026Z,-3.80
2022-11-19T05:58:46.227Z,-3.80
2022-11-19T06:01:15.927Z,-3.80
2022-11-19T06:03:44.009Z,-3.90
2022-11-19T06:06:12.125Z,-3.90
2022-11-19T06:08:41.578Z,-3.90
2022-11-19T06:11:29.937Z,-3.90
2022-11-19T06:13:58.096Z,-3.90
2022-11-19T06:16:26.324Z,-3.90
2022-11-19T06:18:54.616Z,-3.90
2022-11-19T06:21:23.051Z,-3.90
2022-11-19T06:23:52.563Z,-3.90
2022-11-19T06:26:25.095Z,-3.90
2022-11-19T06:28:53.647Z,-3.90
2022-11-19T06:31:23.109Z,-3.90
2022-11-19T06:33:53.360Z,-3.90
2022-11-19T06:36:21.733Z,-3.90
2022-11-19T06:38:51.844Z,-3.90
2022-11-19T06:41:20.722Z,-3.80
2022-11-19T06:43:48.946Z,-3.80
2022-11-19T06:46:17.337Z,-3.90
2022-11-19T06:48:45.491Z,-3.90
2022-11-19T06:51:13.967Z,-3.80
2022-11-19T06:53:42.086Z,-3.80
2022-11-19T06:56:11.621Z,-3.80
2022-11-19T06:58:39.716Z,-3.80
2022-11-19T07:01:07.903Z,-3.70
2022-11-19T07:03:36.477Z,-3.70
2022-11-19T07:06:06.500Z,-3.60
2022-11-19T07:08:35.745Z,-3.70
2022-11-19T07:11:25.475Z,-3.60
2022-11-19T07:13:59.771Z,-3.60
2022-11-19T07:16:33.324Z,-3.50
2022-11-19T07:19:04.263Z,-3.50
2022-11-19T07:21:33.809Z,-3.40
2022-11-19T07:24:05.012Z,-3.40
2022-11-19T07:26:34.853Z,-3.40
2022-11-19T07:29:07.597Z,-3.30
2022-11-19T07:31:36.228Z,-3.20
2022-11-19T07:34:07.989Z,-3.20
2022-11-19T07:36:36.250Z,-3.10
2022-11-19T07:39:05.325Z,-3.10
2022-11-19T07:41:50.766Z,-3.00
2022-11-19T07:44:20.642Z,-2.90
2022-11-19T07:46:48.736Z,-2.80
2022-11-19T07:49:17.165Z,-2.80
2022-11-19T07:51:45.692Z,-2.70
2022-11-19T07:54:14.522Z,-2.60
2022-11-19T07:56:42.931Z,-2.40
2022-11-19T07:59:11.586Z,-2.40
2022-11-19T08:01:41.169Z,-2.30
2022-11-19T08:04:09.294Z,-2.20
2022-11-19T08:06:37.487Z,-2.10
2022-11-19T08:09:06.617Z,-2.00
2022-11-19T08:11:34.723Z,-1.90
2022-11-19T08:14:02.899Z,-1.80
2022-11-19T08:16:50.909Z,-1.70
2022-11-19T08:19:20.620Z,-1.70
2022-11-19T08:21:49.276Z,-1.60
2022-11-19T08:24:20.532Z,-1.40
2022-11-19T08:26:49.583Z,-1.20
2022-11-19T08:29:21.366Z,-1.00
2022-11-19T08:31:50.278Z,-0.90
2022-11-19T08:34:20.276Z,-0.80
2022-11-19T08:36:48.491Z,-0.70
2022-11-19T08:39:16.758Z,-0.60
2022-11-19T08:42:02.223Z,-0.50
2022-11-19T08:44:30.331Z,-0.30
2022-11-19T08:46:58.429Z,-0.20
2022-11-19T08:49:27.997Z,0.00
2022-11-19T08:51:57.478Z,0.10
2022-11-19T08:54:25.712Z,0.30
2022-11-19T08:56:53.840Z,0.40
2022-11-19T08:59:22.324Z,0.30
2022-11-19T09:01:50.937Z,0.40
2022-11-19T09:04:19.452Z,0.50
2022-11-19T09:06:49.116Z,0.60
2022-11-19T09:09:17.806Z,0.80
2022-11-19T09:11:45.971Z,0.70
2022-11-19T09:14:14.076Z,0.90
2022-11-19T09:16:42.286Z,1.00
2022-11-19T09:19:10.404Z,1.10
2022-11-19T09:21:38.529Z,1.30
2022-11-19T09:24:08.605Z,1.30
2022-11-19T09:26:36.845Z,1.20
2022-11-19T09:29:05.117Z,1.40
2022-11-19T09:31:33.457Z,1.40
2022-11-19T09:34:01.609Z,1.60
2022-11-19T09:36:29.731Z,1.60
2022-11-19T09:38:58.860Z,1.70
2022-11-19T09:41:44.483Z,1.80
2022-11-19T09:44:48.687Z,1.80
2022-11-19T09:47:33.198Z,1.90
2022-11-19T09:50:12.164Z,2.10
2022-11-19T09:52:47.230Z,2.20
2022-11-19T09:55:27.530Z,2.20
2022-11-19T09:58:01.085Z,2.40
2022-11-19T10:00:31.960Z,2.50
2022-11-19T10:03:12.265Z,2.70
2022-11-19T10:06:04.253Z,2.70
2022-11-19T10:08:50.660Z,2.50
2022-11-19T10:11:42.301Z,2.60
2022-11-19T10:14:34.278Z,2.50
2022-11-19T10:17:16.469Z,2.30
2022-11-19T10:20:09.094Z,2.20
2022-11-19T10:22:44.297Z,2.30
2022-11-19T10:25:19.695Z,2.30
2022-11-19T10:27:54.905Z,2.30
2022-11-19T10:30:27.266Z,2.20
2022-11-19T10:33:03.492Z,2.40
2022-11-19T10:35:39.436Z,2.50
2022-11-19T10:38:20.426Z,2.60
2022-11-19T10:40:55.140Z,2.80
2022-11-19T10:43:30.972Z,2.40
2022-11-19T10:46:05.315Z,2.30
2022-11-19T10:48:42.722Z,2.20
2022-11-19T10:51:23.372Z,2.20
2022-11-19T10:53:53.243Z,2.00
2022-11-19T10:56:25.696Z,1.90
2022-11-19T10:58:58.957Z,1.80
2022-11-19T11:01:32.233Z,1.70
2022-11-19T11:04:14.104Z,1.60
2022-11-19T11:06:53.588Z,1.60
2022-11-19T11:09:34.240Z,1.50
2022-11-19T11:12:31.177Z,1.30
2022-11-19T11:15:13.742Z,1.20
2022-11-19T11:17:46.639Z,1.10
2022-11-19T11:20:28.270Z,1.00
2022-11-19T11:23:10.039Z,1.10
2022-11-19T11:25:40.515Z,1.20
2022-11-19T11:28:14.622Z,1.40
2022-11-19T11:30:55.246Z,1.60
2022-11-19T11:33:37.588Z,1.70
2022-11-19T11:36:10.834Z,1.60
2022-11-19T11:38:46.142Z,1.60
2022-11-19T11:42:03.432Z,1.60
2022-11-19T11:44:16.887Z,1.60
2022-11-19T11:46:49.155Z,1.50
2022-11-19T11:49:34.917Z,1.60
2022-11-19T11:52:24.020Z,1.50
2022-11-19T11:54:59.646Z,1.70
2022-11-19T11:57:30.868Z,1.70
2022-11-19T11:59:59.805Z,1.80
2022-11-19T12:02:31.279Z,1.80
2022-11-19T12:05:05.123Z,1.80
2022-11-19T12:08:05.097Z,1.90
2022-11-19T12:10:50.169Z,1.90
2022-11-19T12:13:53.297Z,1.90
2022-11-19T12:16:39.478Z,1.90
2022-11-19T12:19:32.499Z,2.00
2022-11-19T12:22:13.110Z,2.10
2022-11-19T12:25:12.759Z,2.10
2022-11-19T12:28:02.893Z,2.20
2022-11-19T12:30:43.367Z,2.30
2022-11-19T12:33:28.299Z,2.40
2022-11-19T12:36:12.377Z,2.60
2022-11-19T12:38:54.744Z,2.60
2022-11-19T12:41:48.418Z,2.60
2022-11-19T12:44:35.967Z,2.70
2022-11-19T12:47:22.587Z,2.60
2022-11-19T12:50:14.290Z,2.60
2022-11-19T12:53:26.359Z,2.50
2022-11-19T12:56:12.173Z,2.30
2022-11-19T12:58:57.498Z,2.20
2022-11-19T13:01:33.958Z,2.10
2022-11-19T13:04:17.990Z,2.20
2022-11-19T13:06:54.711Z,2.10
2022-11-19T13:09:43.828Z,2.10
2022-11-19T13:12:21.425Z,2.00
2022-11-19T13:14:56.357Z,1.90
2022-11-19T13:17:32.553Z,1.90
2022-11-19T13:20:12.862Z,1.80
2022-11-19T13:22:45.987Z,1.80
2022-11-19T13:25:37.548Z,1.70
2022-11-19T13:28:25.821Z,1.70
2022-11-19T13:31:02.235Z,1.70
2022-11-19T13:33:44.682Z,1.70
2022-11-19T13:36:20.953Z,1.60
2022-11-19T13:38:56.195Z,1.60
2022-11-19T13:41:31.920Z,1.50
2022-11-19T13:44:19.558Z,1.40
2022-11-19T13:46:55.547Z,1.40
2022-11-19T13:49:31.303Z,1.30
2022-11-19T13:52:06.814Z,1.30
2022-11-19T13:54:39.357Z,1.30
2022-11-19T13:57:10.678Z,1.20
2022-11-19T13:59:45.301Z,1.10
2022-11-19T14:03:00.565Z,1.10
2022-11-19T14:06:17.105Z,1.00
2022-11-19T14:09:16.879Z,0.90
2022-11-19T14:12:36.418Z,0.80
2022-11-19T14:15:51.787Z,0.70
2022-11-19T14:18:48.976Z,0.70
2022-11-19T14:22:09.665Z,0.60
2022-11-19T14:25:11.716Z,0.50
2022-11-19T14:27:40.295Z,0.50
2022-11-19T14:30:20.181Z,0.50
2022-11-19T14:32:52.951Z,0.50
2022-11-19T14:35:40.003Z,0.50
2022-11-19T14:38:42.890Z,0.40
2022-11-19T14:41:32.116Z,0.40
2022-11-19T14:44:33.114Z,0.40
2022-11-19T14:47:35.754Z,0.40
2022-11-19T14:50:09.545Z,0.30
2022-11-19T14:52:50.415Z,0.20
2022-11-19T14:55:25.048Z,0.20
2022-11-19T14:58:01.738Z,0.10
2022-11-19T15:00:36.180Z,0.10
2022-11-19T15:03:08.435Z,0.00
2022-11-19T15:05:43.885Z,-0.10
2022-11-19T15:08:49.242Z,-0.10
2022-11-19T15:11:17.779Z,-0.20
2022-11-19T15:13:47.809Z,-0.30
2022-11-19T15:16:20.905Z,-0.30
2022-11-19T15:19:34.542Z,-0.30
2022-11-19T15:22:43.881Z,-0.20
2022-11-19T15:25:38.718Z,-0.30
2022-11-19T15:28:25.113Z,-0.40
2022-11-19T15:31:24.701Z,-0.40
2022-11-19T15:34:49.061Z,-0.50
2022-11-19T15:37:28.721Z,-0.60
2022-11-19T15:39:59.183Z,-0.60
2022-11-19T15:42:35.723Z,-0.70
2022-11-19T15:45:09.327Z,-0.70
2022-11-19T15:47:45.169Z,-0.80
2022-11-19T15:50:20.252Z,-0.90
2022-11-19T15:53:00.319Z,-0.90
2022-11-19T15:55:32.481Z,-0.90
2022-11-19T15:58:06.789Z,-1.00
2022-11-19T16:00:46.189Z,-1.00
2022-11-19T16:03:15.184Z,-1.10
2022-11-19T16:05:50.245Z,-1.10
2022-11-19T16:08:18.475Z,-1.20
2022-11-19T16:11:08.886Z,-1.20
2022-11-19T16:13:54.429Z,-1.10
2022-11-19T16:16:46.051Z,-1.00
2022-11-19T16:19:16.117Z,-1.00
2022-11-19T16:21:48.627Z,-1.00
2022-11-19T16:24:34.933Z,-1.00
2022-11-19T16:27:10.300Z,-1.10
2022-11-19T16:29:44.429Z,-1.10
2022-11-19T16:32:18.651Z,-1.10
2022-11-19T16:34:47.561Z,-1.10
2022-11-19T16:37:18.581Z,-1.10
2022-11-19T16:39:53.143Z,-1.20
2022-11-19T16:42:27.148Z,-1.10
2022-11-19T16:44:57.454Z,-1.10
2022-11-19T16:47:32.071Z,-1.10
2022-11-19T16:50:05.527Z,-1.10
2022-11-19T16:52:42.229Z,-1.10
2022-11-19T16:55:52.376Z,-1.10
2022-11-19T16:58:27.108Z,-1.20
2022-11-19T17:00:59.373Z,-1.20
2022-11-19T17:03:39.413Z,-1.30
2022-11-19T17:06:19.145Z,-1.30
2022-11-19T17:08:59.020Z,-1.20
2022-11-19T17:12:09.265Z,-1.30
2022-11-19T17:14:58.395Z,-1.30
2022-11-19T17:17:40.456Z,-1.40
2022-11-19T17:20:52.489Z,-1.40
2022-11-19T17:23:23.608Z,-1.40
2022-11-19T17:25:55.464Z,-1.50
2022-11-19T17:28:31.243Z,-1.50
2022-11-19T17:31:03.153Z,-1.40
2022-11-19T17:33:35.693Z,-1.40
2022-11-19T17:36:05.363Z,-1.40
2022-11-19T17:38:34.770Z,-1.50
2022-11-19T17:41:07.339Z,-1.40
2022-11-19T17:43:55.924Z,-1.40
2022-11-19T17:46:28.032Z,-1.40
2022-11-19T17:48:56.886Z,-1.40
2022-11-19T17:51:27.215Z,-1.40
2022-11-19T17:53:57.836Z,-1.40
2022-11-19T17:56:29.261Z,-1.40
2022-11-19T17:58:59.549Z,-1.40
2022-11-19T18:01:29.264Z,-1.40
2022-11-19T18:03:57.359Z,-1.40
2022-11-19T18:06:25.595Z,-1.40
2022-11-19T18:08:53.856Z,-1.50
2022-11-19T18:11:25.191Z,-1.40
2022-11-19T18:13:57.218Z,-1.40
2022-11-19T18:16:29.710Z,-1.50
2022-11-19T18:18:57.845Z,-1.50
2022-11-19T18:21:27.162Z,-1.50
2022-11-19T18:23:55.223Z,-1.50
2022-11-19T18:26:24.552Z,-1.50
2022-11-19T18:28:52.853Z,-1.60
2022-11-19T18:31:24.100Z,-1.60
2022-11-19T18:33:54.221Z,-1.60
2022-11-19T18:36:22.627Z,-1.60
2022-11-19T18:38:51.987Z,-1.60
2022-11-19T18:41:20.120Z,-1.70
2022-11-19T18:44:06.337Z,-1.70
2022-11-19T18:46:34.577Z,-1.70
2022-11-19T18:49:04.301Z,-1.70
2022-11-19T18:51:32.851Z,-1.70
2022-11-19T18:54:01.194Z,-1.70
2022-11-19T18:56:29.271Z,-1.80
2022-11-19T18:59:01.817Z,-1.70
2022-11-19T19:01:32.958Z,-1.80
2022-11-19T19:04:01.194Z,-1.90
2022-11-19T19:06:32.076Z,-1.80
2022-11-19T19:09:00.267Z,-1.80
2022-11-19T19:11:45.859Z,-1.80
2022-11-19T19:14:14.450Z,-1.80
2022-11-19T19:16:42.904Z,-1.80
2022-11-19T19:19:14.042Z,-1.60
2022-11-19T19:21:43.735Z,-1.60
2022-11-19T19:24:11.985Z,-1.60
2022-11-19T19:26:40.075Z,-1.60
2022-11-19T19:29:08.717Z,-1.60
2022-11-19T19:31:37.579Z,-1.60
2022-11-19T19:34:05.911Z,-1.50
2022-11-19T19:36:33.992Z,-1.40
2022-11-19T19:39:03.706Z,-1.40
2022-11-19T19:41:31.866Z,-1.30
2022-11-19T19:44:03.649Z,-1.30
2022-11-19T19:46:32.956Z,-1.20
2022-11-19T19:49:01.176Z,-1.00
2022-11-19T19:51:32.525Z,-0.90
2022-11-19T19:54:01.350Z,-0.90
2022-11-19T19:56:33.035Z,-0.90
2022-11-19T19:59:02.424Z,-0.90
2022-11-19T20:01:33.497Z,-0.80
2022-11-19T20:04:03.126Z,-0.90
2022-11-19T20:06:32.028Z,-0.90
2022-11-19T20:09:03.225Z,-1.00
2022-11-19T20:11:36.557Z,-0.90
2022-11-19T20:14:06.311Z,-1.10
2022-11-19T20:16:35.779Z,-1.20
2022-11-19T20:19:03.951Z,-1.30
2022-11-19T20:21:36.239Z,-1.40
2022-11-19T20:24:11.438Z,-1.40
2022-11-19T20:26:43.226Z,-1.40
2022-11-19T20:29:14.291Z,-1.40
2022-11-19T20:31:47.801Z,-1.50
2022-11-19T20:34:17.213Z,-1.50
2022-11-19T20:36:45.587Z,-1.60
2022-11-19T20:39:13.807Z,-1.60
2022-11-19T20:42:00.692Z,-1.60
2022-11-19T20:44:28.894Z,-1.60
2022-11-19T20:46:58.749Z,-1.60
2022-11-19T20:49:29.607Z,-1.70
2022-11-19T20:51:58.930Z,-1.80
2022-11-19T20:54:28.634Z,-1.80
2022-11-19T20:56:59.145Z,-1.80
2022-11-19T20:59:28.211Z,-1.90
2022-11-19T21:01:57.824Z,-1.90
2022-11-19T21:04:28.457Z,-2.00
2022-11-19T21:06:56.799Z,-2.00
2022-11-19T21:09:25.554Z,-2.00
2022-11-19T21:11:53.854Z,-2.00
2022-11-19T21:14:23.358Z,-2.10
2022-11-19T21:16:51.515Z,-2.10
2022-11-19T21:19:19.988Z,-2.10
2022-11-19T21:21:48.334Z,-2.10
2022-11-19T21:24:16.800Z,-2.10
2022-11-19T21:26:45.010Z,-2.10
2022-11-19T21:29:13.599Z,-2.10
2022-11-19T21:31:47.226Z,-2.10
2022-11-19T21:34:18.821Z,-2.10
2022-11-19T21:36:48.741Z,-2.00
2022-11-19T21:39:19.620Z,-2.10
2022-11-19T21:41:48.457Z,-2.10
2022-11-19T21:44:21.076Z,-2.10
2022-11-19T21:46:51.548Z,-2.20
2022-11-19T21:49:19.984Z,-2.20
2022-11-19T21:51:48.992Z,-2.30
2022-11-19T21:54:17.175Z,-2.30
2022-11-19T21:56:45.404Z,-2.20
2022-11-19T21:59:13.797Z,-2.30
2022-11-19T22:01:41.937Z,-2.30
2022-11-19T22:04:13.568Z,-2.30
2022-11-19T22:06:41.991Z,-2.30
2022-11-19T22:09:10.140Z,-2.30
2022-11-19T22:11:38.260Z,-2.40
2022-11-19T22:14:09.099Z,-2.30
2022-11-19T22:16:40.538Z,-2.40
2022-11-19T22:19:09.413Z,-2.40
2022-11-19T22:21:39.498Z,-2.40
2022-11-19T22:24:08.304Z,-2.40
2022-11-19T22:26:36.468Z,-2.40
2022-11-19T22:29:04.630Z,-2.50
2022-11-19T22:31:32.841Z,-2.40
2022-11-19T22:34:00.954Z,-2.50
2022-11-19T22:36:33.153Z,-2.50
2022-11-19T22:39:02.939Z,-2.50
2022-11-19T22:41:31.219Z,-2.50
2022-11-19T22:43:59.365Z,-2.50
2022-11-19T22:46:28.827Z,-2.50
2022-11-19T22:48:57.172Z,-2.50
2022-11-19T22:51:27.191Z,-2.40
2022-11-19T22:53:56.318Z,-2.40
2022-11-19T22:56:28.649Z,-2.30
2022-11-19T22:58:58.642Z,-2.30
2022-11-19T23:01:28.940Z,-2.40
2022-11-19T23:03:59.571Z,-2.40
2022-11-19T23:06:28.052Z,-2.40
2022-11-19T23:08:56.544Z,-2.40
2022-11-19T23:11:43.671Z,-2.50
2022-11-19T23:14:15.037Z,-2.50
2022-11-19T23:16:43.941Z,-2.50
2022-11-19T23:19:13.988Z,-2.60
2022-11-19T23:21:42.529Z,-2.60
2022-11-19T23:24:11.725Z,-2.70
2022-11-19T23:26:41.619Z,-2.70
2022-11-19T23:29:10.149Z,-2.70
2022-11-19T23:31:40.999Z,-2.70
2022-11-19T23:34:09.335Z,-2.70
2022-11-19T23:36:40.443Z,-2.70
2022-11-19T23:39:15.313Z,-2.70
2022-11-19T23:41:45.517Z,-2.70
2022-11-19T23:44:13.870Z,-2.70
2022-11-19T23:46:42.197Z,-2.70
2022-11-19T23:49:12.023Z,-2.70
2022-11-19T23:51:40.397Z,-2.80
2022-11-19T23:54:08.526Z,-2.70
2022-11-19T23:56:37.124Z,-2.80
2022-11-19T23:59:07.502Z,-2.70
